sensor_id;sensor_type;location;lat;lon;timestamp;temperature;humidity
11126;DHT22;5617;54.046;10.676;2022-10-17T00:01:00;10.70;99.90
11126;DHT22;5617;54.046;10.676;2022-10-17T00:03:09;10.70;99.90
11126;DHT22;5617;54.046;10.676;2022-10-17T00:05:17;10.70;99.90
11126;DHT22;5617;54.046;10.676;2022-10-17T00:07:25;10.70;99.90
11126;DHT22;5617;54.046;10.676;2022-10-17T00:09:33;10.70;99.90
11126;DHT22;5617;54.046;10.676;2022-10-17T00:11:41;10.70;99.90
11126;DHT22;5617;54.046;10.676;2022-10-17T00:13:50;10.70;99.90
11126;DHT22;5617;54.046;10.676;2022-10-17T00:16:00;10.70;99.90
11126;DHT22;5617;54.046;10.676;2022-10-17T00:18:09;10.70;99.90
11126;DHT22;5617;54.046;10.676;2022-10-17T00:20:17;10.70;99.90
11126;DHT22;5617;54.046;10.676;2022-10-17T00:22:25;10.60;99.90
11126;DHT22;5617;54.046;10.676;2022-10-17T00:24:33;10.60;99.90
11126;DHT22;5617;54.046;10.676;2022-10-17T00:26:41;10.60;99.90
11126;DHT22;5617;54.046;10.676;2022-10-17T00:28:50;10.50;99.90
11126;DHT22;5617;54.046;10.676;2022-10-17T00:31:00;10.50;99.90
11126;DHT22;5617;54.046;10.676;2022-10-17T00:33:10;10.60;99.90
11126;DHT22;5617;54.046;10.676;2022-10-17T00:35:17;10.60;99.90
11126;DHT22;5617;54.046;10.676;2022-10-17T00:37:25;10.60;99.90
11126;DHT22;5617;54.046;10.676;2022-10-17T00:39:33;10.60;99.90
11126;DHT22;5617;54.046;10.676;2022-10-17T00:41:41;10.60;99.90
11126;DHT22;5617;54.046;10.676;2022-10-17T00:43:51;10.60;99.90
11126;DHT22;5617;54.046;10.676;2022-10-17T00:45:59;10.50;99.90
11126;DHT22;5617;54.046;10.676;2022-10-17T00:48:10;10.60;99.90
11126;DHT22;5617;54.046;10.676;2022-10-17T00:50:18;10.60;99.90
11126;DHT22;5617;54.046;10.676;2022-10-17T00:52:28;10.70;99.90
11126;DHT22;5617;54.046;10.676;2022-10-17T00:54:40;10.70;99.90
11126;DHT22;5617;54.046;10.676;2022-10-17T00:56:50;10.70;99.90
11126;DHT22;5617;54.046;10.676;2022-10-17T00:58:58;10.70;99.90
11126;DHT22;5617;54.046;10.676;2022-10-17T01:01:06;10.80;99.90
11126;DHT22;5617;54.046;10.676;2022-10-17T01:03:16;10.80;99.90
11126;DHT22;5617;54.046;10.676;2022-10-17T01:05:24;10.80;99.90
11126;DHT22;5617;54.046;10.676;2022-10-17T01:07:32;10.90;99.90
11126;DHT22;5617;54.046;10.676;2022-10-17T01:09:40;10.90;99.90
11126;DHT22;5617;54.046;10.676;2022-10-17T01:11:53;10.90;99.90
11126;DHT22;5617;54.046;10.676;2022-10-17T01:14:06;11.00;99.90
11126;DHT22;5617;54.046;10.676;2022-10-17T01:16:18;11.00;99.90
11126;DHT22;5617;54.046;10.676;2022-10-17T01:18:36;11.10;99.90
11126;DHT22;5617;54.046;10.676;2022-10-17T01:21:07;11.10;99.90
11126;DHT22;5617;54.046;10.676;2022-10-17T01:23:29;11.10;99.90
11126;DHT22;5617;54.046;10.676;2022-10-17T01:25:48;11.10;99.90
11126;DHT22;5617;54.046;10.676;2022-10-17T01:28:15;11.10;99.90
11126;DHT22;5617;54.046;10.676;2022-10-17T01:30:50;11.20;99.90
11126;DHT22;5617;54.046;10.676;2022-10-17T01:33:06;11.20;99.90
11126;DHT22;5617;54.046;10.676;2022-10-17T01:35:20;11.20;99.90
11126;DHT22;5617;54.046;10.676;2022-10-17T01:37:32;11.30;99.90
11126;DHT22;5617;54.046;10.676;2022-10-17T01:39:47;11.30;99.90
11126;DHT22;5617;54.046;10.676;2022-10-17T01:42:02;11.40;99.90
11126;DHT22;5617;54.046;10.676;2022-10-17T01:44:16;11.50;99.90
11126;DHT22;5617;54.046;10.676;2022-10-17T01:46:29;11.50;99.90
11126;DHT22;5617;54.046;10.676;2022-10-17T01:48:42;11.60;99.90
11126;DHT22;5617;54.046;10.676;2022-10-17T01:50:53;11.60;99.90
11126;DHT22;5617;54.046;10.676;2022-10-17T01:53:07;11.70;99.90
11126;DHT22;5617;54.046;10.676;2022-10-17T01:55:19;11.70;99.90
11126;DHT22;5617;54.046;10.676;2022-10-17T01:57:31;11.80;99.90
11126;DHT22;5617;54.046;10.676;2022-10-17T01:59:43;11.80;99.90
11126;DHT22;5617;54.046;10.676;2022-10-17T02:01:55;11.80;99.90
11126;DHT22;5617;54.046;10.676;2022-10-17T02:04:05;11.90;99.90
11126;DHT22;5617;54.046;10.676;2022-10-17T02:06:15;11.90;99.90
11126;DHT22;5617;54.046;10.676;2022-10-17T02:08:27;11.90;99.90
11126;DHT22;5617;54.046;10.676;2022-10-17T02:10:38;12.00;99.90
11126;DHT22;5617;54.046;10.676;2022-10-17T02:12:52;12.00;99.90
11126;DHT22;5617;54.046;10.676;2022-10-17T02:15:15;12.10;99.90
11126;DHT22;5617;54.046;10.676;2022-10-17T02:17:41;12.10;99.90
11126;DHT22;5617;54.046;10.676;2022-10-17T02:19:56;12.10;99.90
11126;DHT22;5617;54.046;10.676;2022-10-17T02:22:16;12.20;99.90
11126;DHT22;5617;54.046;10.676;2022-10-17T02:24:34;12.20;99.90
11126;DHT22;5617;54.046;10.676;2022-10-17T02:26:52;12.20;99.90
11126;DHT22;5617;54.046;10.676;2022-10-17T02:29:06;12.30;99.90
11126;DHT22;5617;54.046;10.676;2022-10-17T02:31:17;12.40;99.90
11126;DHT22;5617;54.046;10.676;2022-10-17T02:33:32;12.40;99.90
11126;DHT22;5617;54.046;10.676;2022-10-17T02:35:46;12.40;99.90
11126;DHT22;5617;54.046;10.676;2022-10-17T02:37:55;12.40;99.90
11126;DHT22;5617;54.046;10.676;2022-10-17T02:40:06;12.40;99.90
11126;DHT22;5617;54.046;10.676;2022-10-17T02:42:14;12.50;99.90
11126;DHT22;5617;54.046;10.676;2022-10-17T02:44:23;12.50;99.90
11126;DHT22;5617;54.046;10.676;2022-10-17T02:46:33;12.50;99.90
11126;DHT22;5617;54.046;10.676;2022-10-17T02:48:46;12.50;99.90
11126;DHT22;5617;54.046;10.676;2022-10-17T02:51:01;12.50;99.90
11126;DHT22;5617;54.046;10.676;2022-10-17T02:53:13;12.60;99.90
11126;DHT22;5617;54.046;10.676;2022-10-17T02:55:28;12.60;99.90
11126;DHT22;5617;54.046;10.676;2022-10-17T02:57:40;12.60;99.90
11126;DHT22;5617;54.046;10.676;2022-10-17T02:59:50;12.60;99.90
11126;DHT22;5617;54.046;10.676;2022-10-17T03:02:02;12.60;99.90
11126;DHT22;5617;54.046;10.676;2022-10-17T03:04:14;12.60;99.90
11126;DHT22;5617;54.046;10.676;2022-10-17T03:06:24;12.70;99.90
11126;DHT22;5617;54.046;10.676;2022-10-17T03:08:35;12.70;99.90
11126;DHT22;5617;54.046;10.676;2022-10-17T03:10:43;12.70;99.90
11126;DHT22;5617;54.046;10.676;2022-10-17T03:12:52;12.80;99.90
11126;DHT22;5617;54.046;10.676;2022-10-17T03:15:02;12.80;99.90
11126;DHT22;5617;54.046;10.676;2022-10-17T03:17:12;12.80;99.90
11126;DHT22;5617;54.046;10.676;2022-10-17T03:19:29;12.80;99.90
11126;DHT22;5617;54.046;10.676;2022-10-17T03:21:40;12.80;99.90
11126;DHT22;5617;54.046;10.676;2022-10-17T03:23:48;12.90;99.90
11126;DHT22;5617;54.046;10.676;2022-10-17T03:25:57;12.90;99.90
11126;DHT22;5617;54.046;10.676;2022-10-17T03:28:09;12.90;99.90
11126;DHT22;5617;54.046;10.676;2022-10-17T03:30:17;12.90;99.90
11126;DHT22;5617;54.046;10.676;2022-10-17T03:32:26;12.90;99.90
11126;DHT22;5617;54.046;10.676;2022-10-17T03:34:36;13.00;99.90
11126;DHT22;5617;54.046;10.676;2022-10-17T03:36:45;13.00;99.90
11126;DHT22;5617;54.046;10.676;2022-10-17T03:38:54;13.00;99.90
11126;DHT22;5617;54.046;10.676;2022-10-17T03:41:04;13.10;99.90
11126;DHT22;5617;54.046;10.676;2022-10-17T03:43:14;13.10;99.90
11126;DHT22;5617;54.046;10.676;2022-10-17T03:45:21;13.30;99.90
11126;DHT22;5617;54.046;10.676;2022-10-17T03:47:30;13.20;99.90
11126;DHT22;5617;54.046;10.676;2022-10-17T03:49:40;13.20;99.90
11126;DHT22;5617;54.046;10.676;2022-10-17T03:51:48;13.30;99.90
11126;DHT22;5617;54.046;10.676;2022-10-17T03:53:55;13.30;99.90
11126;DHT22;5617;54.046;10.676;2022-10-17T03:56:14;13.40;99.90
11126;DHT22;5617;54.046;10.676;2022-10-17T03:58:22;13.40;99.90
11126;DHT22;5617;54.046;10.676;2022-10-17T04:00:31;13.50;99.90
11126;DHT22;5617;54.046;10.676;2022-10-17T04:02:39;13.50;99.90
11126;DHT22;5617;54.046;10.676;2022-10-17T04:04:48;13.60;99.90
11126;DHT22;5617;54.046;10.676;2022-10-17T04:06:56;13.60;99.90
11126;DHT22;5617;54.046;10.676;2022-10-17T04:09:05;13.60;99.90
11126;DHT22;5617;54.046;10.676;2022-10-17T04:11:15;13.60;99.90
11126;DHT22;5617;54.046;10.676;2022-10-17T04:13:23;13.60;99.90
11126;DHT22;5617;54.046;10.676;2022-10-17T04:15:31;13.60;99.90
11126;DHT22;5617;54.046;10.676;2022-10-17T04:17:39;13.70;99.90
11126;DHT22;5617;54.046;10.676;2022-10-17T04:19:49;13.70;99.90
11126;DHT22;5617;54.046;10.676;2022-10-17T04:21:57;13.70;99.90
11126;DHT22;5617;54.046;10.676;2022-10-17T04:24:05;13.80;99.90
11126;DHT22;5617;54.046;10.676;2022-10-17T04:26:13;13.80;99.90
11126;DHT22;5617;54.046;10.676;2022-10-17T04:28:20;13.80;99.90
11126;DHT22;5617;54.046;10.676;2022-10-17T04:30:28;13.80;99.90
11126;DHT22;5617;54.046;10.676;2022-10-17T04:32:36;13.90;99.90
11126;DHT22;5617;54.046;10.676;2022-10-17T04:34:48;13.90;99.90
11126;DHT22;5617;54.046;10.676;2022-10-17T04:36:56;13.90;99.90
11126;DHT22;5617;54.046;10.676;2022-10-17T04:39:04;13.90;99.90
11126;DHT22;5617;54.046;10.676;2022-10-17T04:41:14;14.00;99.90
11126;DHT22;5617;54.046;10.676;2022-10-17T04:43:22;14.00;99.90
11126;DHT22;5617;54.046;10.676;2022-10-17T04:45:30;14.00;99.90
11126;DHT22;5617;54.046;10.676;2022-10-17T04:47:38;14.00;99.90
11126;DHT22;5617;54.046;10.676;2022-10-17T04:49:46;14.00;99.90
11126;DHT22;5617;54.046;10.676;2022-10-17T04:51:55;13.90;99.90
11126;DHT22;5617;54.046;10.676;2022-10-17T04:54:03;13.90;99.90
11126;DHT22;5617;54.046;10.676;2022-10-17T04:56:14;13.90;99.90
11126;DHT22;5617;54.046;10.676;2022-10-17T04:58:22;13.90;99.90
11126;DHT22;5617;54.046;10.676;2022-10-17T05:00:30;13.80;99.90
11126;DHT22;5617;54.046;10.676;2022-10-17T05:02:38;13.90;99.90
11126;DHT22;5617;54.046;10.676;2022-10-17T05:04:46;13.80;99.90
11126;DHT22;5617;54.046;10.676;2022-10-17T05:06:55;13.90;99.90
11126;DHT22;5617;54.046;10.676;2022-10-17T05:09:02;13.90;99.90
11126;DHT22;5617;54.046;10.676;2022-10-17T05:11:19;13.80;99.90
11126;DHT22;5617;54.046;10.676;2022-10-17T05:13:27;13.80;99.90
11126;DHT22;5617;54.046;10.676;2022-10-17T05:15:35;13.80;99.90
11126;DHT22;5617;54.046;10.676;2022-10-17T05:17:43;13.80;99.90
11126;DHT22;5617;54.046;10.676;2022-10-17T05:19:51;13.90;99.90
11126;DHT22;5617;54.046;10.676;2022-10-17T05:22:00;13.90;99.90
11126;DHT22;5617;54.046;10.676;2022-10-17T05:24:10;13.80;99.90
11126;DHT22;5617;54.046;10.676;2022-10-17T05:26:20;13.80;99.90
11126;DHT22;5617;54.046;10.676;2022-10-17T05:28:29;13.80;99.90
11126;DHT22;5617;54.046;10.676;2022-10-17T05:30:36;13.80;99.90
11126;DHT22;5617;54.046;10.676;2022-10-17T05:32:44;13.80;99.90
11126;DHT22;5617;54.046;10.676;2022-10-17T05:34:52;13.80;99.90
11126;DHT22;5617;54.046;10.676;2022-10-17T05:37:02;13.80;99.90
11126;DHT22;5617;54.046;10.676;2022-10-17T05:39:11;13.90;99.90
11126;DHT22;5617;54.046;10.676;2022-10-17T05:41:19;13.80;99.90
11126;DHT22;5617;54.046;10.676;2022-10-17T05:43:27;13.80;99.90
11126;DHT22;5617;54.046;10.676;2022-10-17T05:45:35;13.90;99.90
11126;DHT22;5617;54.046;10.676;2022-10-17T05:47:44;13.90;99.90
11126;DHT22;5617;54.046;10.676;2022-10-17T05:49:52;13.90;99.90
11126;DHT22;5617;54.046;10.676;2022-10-17T05:52:01;13.80;99.90
11126;DHT22;5617;54.046;10.676;2022-10-17T05:54:11;13.80;99.90
11126;DHT22;5617;54.046;10.676;2022-10-17T05:56:18;13.80;99.90
11126;DHT22;5617;54.046;10.676;2022-10-17T05:58:27;13.80;99.90
11126;DHT22;5617;54.046;10.676;2022-10-17T06:00:35;13.70;99.90
11126;DHT22;5617;54.046;10.676;2022-10-17T06:02:43;13.70;99.90
11126;DHT22;5617;54.046;10.676;2022-10-17T06:04:52;13.80;99.90
11126;DHT22;5617;54.046;10.676;2022-10-17T06:07:01;13.60;99.90
11126;DHT22;5617;54.046;10.676;2022-10-17T06:09:09;13.60;99.90
11126;DHT22;5617;54.046;10.676;2022-10-17T06:11:17;13.60;99.90
11126;DHT22;5617;54.046;10.676;2022-10-17T06:13:25;13.60;99.90
11126;DHT22;5617;54.046;10.676;2022-10-17T06:15:33;13.60;99.90
11126;DHT22;5617;54.046;10.676;2022-10-17T06:17:41;13.60;99.90
11126;DHT22;5617;54.046;10.676;2022-10-17T06:19:49;13.60;99.90
11126;DHT22;5617;54.046;10.676;2022-10-17T06:21:57;13.60;99.90
11126;DHT22;5617;54.046;10.676;2022-10-17T06:24:06;13.60;99.90
11126;DHT22;5617;54.046;10.676;2022-10-17T06:26:14;13.60;99.90
11126;DHT22;5617;54.046;10.676;2022-10-17T06:28:22;13.60;99.90
11126;DHT22;5617;54.046;10.676;2022-10-17T06:30:30;13.60;99.90
11126;DHT22;5617;54.046;10.676;2022-10-17T06:32:38;13.60;99.90
11126;DHT22;5617;54.046;10.676;2022-10-17T06:34:46;13.60;99.90
11126;DHT22;5617;54.046;10.676;2022-10-17T06:36:53;13.60;99.90
11126;DHT22;5617;54.046;10.676;2022-10-17T06:39:02;13.60;99.90
11126;DHT22;5617;54.046;10.676;2022-10-17T06:41:12;13.70;99.90
11126;DHT22;5617;54.046;10.676;2022-10-17T06:43:22;13.70;99.90
11126;DHT22;5617;54.046;10.676;2022-10-17T06:45:33;13.80;99.90
11126;DHT22;5617;54.046;10.676;2022-10-17T06:47:41;13.80;99.90
11126;DHT22;5617;54.046;10.676;2022-10-17T06:49:49;13.90;99.90
11126;DHT22;5617;54.046;10.676;2022-10-17T06:51:57;13.90;99.90
11126;DHT22;5617;54.046;10.676;2022-10-17T06:54:05;14.00;99.90
11126;DHT22;5617;54.046;10.676;2022-10-17T06:56:14;14.00;99.90
11126;DHT22;5617;54.046;10.676;2022-10-17T06:58:21;14.10;99.90
11126;DHT22;5617;54.046;10.676;2022-10-17T07:00:29;14.10;99.90
11126;DHT22;5617;54.046;10.676;2022-10-17T07:02:37;14.20;99.90
11126;DHT22;5617;54.046;10.676;2022-10-17T07:04:46;14.20;99.90
11126;DHT22;5617;54.046;10.676;2022-10-17T07:06:54;14.30;99.90
11126;DHT22;5617;54.046;10.676;2022-10-17T07:09:02;14.30;99.90
11126;DHT22;5617;54.046;10.676;2022-10-17T07:11:16;14.50;99.90
11126;DHT22;5617;54.046;10.676;2022-10-17T07:13:24;14.40;99.90
11126;DHT22;5617;54.046;10.676;2022-10-17T07:15:32;14.40;99.90
11126;DHT22;5617;54.046;10.676;2022-10-17T07:17:40;14.50;99.90
11126;DHT22;5617;54.046;10.676;2022-10-17T07:19:48;14.60;99.90
11126;DHT22;5617;54.046;10.676;2022-10-17T07:21:56;14.70;99.90
11126;DHT22;5617;54.046;10.676;2022-10-17T07:24:04;14.80;99.90
11126;DHT22;5617;54.046;10.676;2022-10-17T07:26:15;14.80;99.90
11126;DHT22;5617;54.046;10.676;2022-10-17T07:28:23;14.90;99.90
11126;DHT22;5617;54.046;10.676;2022-10-17T07:30:32;15.00;99.90
11126;DHT22;5617;54.046;10.676;2022-10-17T07:32:41;15.00;99.90
11126;DHT22;5617;54.046;10.676;2022-10-17T07:34:48;15.20;99.90
11126;DHT22;5617;54.046;10.676;2022-10-17T07:36:56;15.30;99.90
11126;DHT22;5617;54.046;10.676;2022-10-17T07:39:04;15.40;99.90
11126;DHT22;5617;54.046;10.676;2022-10-17T07:41:13;15.50;99.90
11126;DHT22;5617;54.046;10.676;2022-10-17T07:43:22;15.60;99.90
11126;DHT22;5617;54.046;10.676;2022-10-17T07:45:30;15.80;99.90
11126;DHT22;5617;54.046;10.676;2022-10-17T07:47:38;15.90;99.90
11126;DHT22;5617;54.046;10.676;2022-10-17T07:49:46;16.00;99.90
11126;DHT22;5617;54.046;10.676;2022-10-17T07:51:54;16.10;99.90
11126;DHT22;5617;54.046;10.676;2022-10-17T07:54:03;16.10;99.90
11126;DHT22;5617;54.046;10.676;2022-10-17T07:56:11;16.20;99.90
11126;DHT22;5617;54.046;10.676;2022-10-17T07:58:21;16.30;99.90
11126;DHT22;5617;54.046;10.676;2022-10-17T08:00:29;16.40;99.90
11126;DHT22;5617;54.046;10.676;2022-10-17T08:02:37;16.40;99.90
11126;DHT22;5617;54.046;10.676;2022-10-17T08:04:45;16.40;99.90
11126;DHT22;5617;54.046;10.676;2022-10-17T08:06:53;16.40;99.90
11126;DHT22;5617;54.046;10.676;2022-10-17T08:09:01;16.40;99.90
11126;DHT22;5617;54.046;10.676;2022-10-17T08:11:11;16.60;99.90
11126;DHT22;5617;54.046;10.676;2022-10-17T08:13:21;16.70;99.90
11126;DHT22;5617;54.046;10.676;2022-10-17T08:15:29;16.80;99.90
11126;DHT22;5617;54.046;10.676;2022-10-17T08:17:38;16.90;99.90
11126;DHT22;5617;54.046;10.676;2022-10-17T08:19:46;16.90;99.90
11126;DHT22;5617;54.046;10.676;2022-10-17T08:21:53;16.90;99.90
11126;DHT22;5617;54.046;10.676;2022-10-17T08:24:03;16.90;99.90
11126;DHT22;5617;54.046;10.676;2022-10-17T08:26:17;17.00;99.90
11126;DHT22;5617;54.046;10.676;2022-10-17T08:28:27;17.10;99.90
11126;DHT22;5617;54.046;10.676;2022-10-17T08:30:35;17.10;99.90
11126;DHT22;5617;54.046;10.676;2022-10-17T08:32:43;17.30;99.90
11126;DHT22;5617;54.046;10.676;2022-10-17T08:34:51;17.40;99.90
11126;DHT22;5617;54.046;10.676;2022-10-17T08:36:59;17.40;99.90
11126;DHT22;5617;54.046;10.676;2022-10-17T08:39:08;17.50;99.90
11126;DHT22;5617;54.046;10.676;2022-10-17T08:41:38;17.50;99.90
11126;DHT22;5617;54.046;10.676;2022-10-17T08:44:02;17.50;99.90
11126;DHT22;5617;54.046;10.676;2022-10-17T08:46:12;17.40;99.90
11126;DHT22;5617;54.046;10.676;2022-10-17T08:48:23;17.40;99.90
11126;DHT22;5617;54.046;10.676;2022-10-17T08:50:35;17.40;99.90
11126;DHT22;5617;54.046;10.676;2022-10-17T08:52:47;17.30;99.90
11126;DHT22;5617;54.046;10.676;2022-10-17T08:54:57;17.30;99.90
11126;DHT22;5617;54.046;10.676;2022-10-17T08:57:11;17.30;99.90
11126;DHT22;5617;54.046;10.676;2022-10-17T08:59:25;17.30;99.90
11126;DHT22;5617;54.046;10.676;2022-10-17T09:01:39;17.30;99.90
11126;DHT22;5617;54.046;10.676;2022-10-17T09:04:00;17.30;99.90
11126;DHT22;5617;54.046;10.676;2022-10-17T09:06:18;17.40;99.90
11126;DHT22;5617;54.046;10.676;2022-10-17T09:08:36;17.40;99.90
11126;DHT22;5617;54.046;10.676;2022-10-17T09:10:53;17.40;99.90
11126;DHT22;5617;54.046;10.676;2022-10-17T09:13:15;17.50;99.90
11126;DHT22;5617;54.046;10.676;2022-10-17T09:15:40;17.50;99.90
11126;DHT22;5617;54.046;10.676;2022-10-17T09:17:52;17.60;99.90
11126;DHT22;5617;54.046;10.676;2022-10-17T09:20:05;17.70;99.90
11126;DHT22;5617;54.046;10.676;2022-10-17T09:22:19;17.80;99.90
11126;DHT22;5617;54.046;10.676;2022-10-17T09:24:42;17.90;99.90
11126;DHT22;5617;54.046;10.676;2022-10-17T09:26:51;18.00;99.90
11126;DHT22;5617;54.046;10.676;2022-10-17T09:29:00;18.00;99.90
11126;DHT22;5617;54.046;10.676;2022-10-17T09:31:15;18.10;99.90
11126;DHT22;5617;54.046;10.676;2022-10-17T09:33:27;18.20;99.90
11126;DHT22;5617;54.046;10.676;2022-10-17T09:35:36;18.30;99.90
11126;DHT22;5617;54.046;10.676;2022-10-17T09:37:44;18.40;99.90
11126;DHT22;5617;54.046;10.676;2022-10-17T09:39:54;18.50;99.90
11126;DHT22;5617;54.046;10.676;2022-10-17T09:42:02;18.50;99.90
11126;DHT22;5617;54.046;10.676;2022-10-17T09:44:14;18.50;99.90
11126;DHT22;5617;54.046;10.676;2022-10-17T09:46:27;18.50;99.90
11126;DHT22;5617;54.046;10.676;2022-10-17T09:48:38;18.60;99.90
11126;DHT22;5617;54.046;10.676;2022-10-17T09:50:48;18.60;99.90
11126;DHT22;5617;54.046;10.676;2022-10-17T09:52:59;18.50;99.90
11126;DHT22;5617;54.046;10.676;2022-10-17T09:55:16;18.60;99.90
11126;DHT22;5617;54.046;10.676;2022-10-17T09:57:24;18.60;99.90
11126;DHT22;5617;54.046;10.676;2022-10-17T09:59:34;18.70;99.90
11126;DHT22;5617;54.046;10.676;2022-10-17T10:01:44;18.70;99.90
11126;DHT22;5617;54.046;10.676;2022-10-17T10:04:07;18.80;99.90
11126;DHT22;5617;54.046;10.676;2022-10-17T10:06:18;18.80;99.90
11126;DHT22;5617;54.046;10.676;2022-10-17T10:08:35;18.90;99.90
11126;DHT22;5617;54.046;10.676;2022-10-17T10:10:44;19.00;99.90
11126;DHT22;5617;54.046;10.676;2022-10-17T10:13:04;19.00;99.90
11126;DHT22;5617;54.046;10.676;2022-10-17T10:15:30;19.00;99.90
11126;DHT22;5617;54.046;10.676;2022-10-17T10:17:40;19.20;99.90
11126;DHT22;5617;54.046;10.676;2022-10-17T10:19:50;19.20;99.90
11126;DHT22;5617;54.046;10.676;2022-10-17T10:21:59;19.30;99.90
11126;DHT22;5617;54.046;10.676;2022-10-17T10:24:12;19.30;99.90
11126;DHT22;5617;54.046;10.676;2022-10-17T10:26:22;19.40;99.90
11126;DHT22;5617;54.046;10.676;2022-10-17T10:28:33;19.60;99.90
11126;DHT22;5617;54.046;10.676;2022-10-17T10:30:59;19.50;99.90
11126;DHT22;5617;54.046;10.676;2022-10-17T10:33:13;19.60;99.90
11126;DHT22;5617;54.046;10.676;2022-10-17T10:35:23;19.70;99.90
11126;DHT22;5617;54.046;10.676;2022-10-17T10:37:36;19.80;99.90
11126;DHT22;5617;54.046;10.676;2022-10-17T10:39:47;19.90;99.90
11126;DHT22;5617;54.046;10.676;2022-10-17T10:41:56;20.20;99.90
11126;DHT22;5617;54.046;10.676;2022-10-17T10:44:04;20.20;99.90
11126;DHT22;5617;54.046;10.676;2022-10-17T10:46:17;20.10;99.90
11126;DHT22;5617;54.046;10.676;2022-10-17T10:48:31;20.10;99.90
11126;DHT22;5617;54.046;10.676;2022-10-17T10:50:42;20.10;99.90
11126;DHT22;5617;54.046;10.676;2022-10-17T10:53:02;20.20;99.90
11126;DHT22;5617;54.046;10.676;2022-10-17T10:55:22;20.30;99.90
11126;DHT22;5617;54.046;10.676;2022-10-17T10:57:34;20.50;99.90
11126;DHT22;5617;54.046;10.676;2022-10-17T10:59:50;20.70;99.90
11126;DHT22;5617;54.046;10.676;2022-10-17T11:02:08;20.80;99.90
11126;DHT22;5617;54.046;10.676;2022-10-17T11:04:25;20.80;99.90
11126;DHT22;5617;54.046;10.676;2022-10-17T11:06:36;20.80;99.90
11126;DHT22;5617;54.046;10.676;2022-10-17T11:08:47;20.90;99.90
11126;DHT22;5617;54.046;10.676;2022-10-17T11:11:06;20.90;99.90
11126;DHT22;5617;54.046;10.676;2022-10-17T11:13:23;20.80;99.90
11126;DHT22;5617;54.046;10.676;2022-10-17T11:15:39;20.80;99.90
11126;DHT22;5617;54.046;10.676;2022-10-17T11:17:55;20.80;99.90
11126;DHT22;5617;54.046;10.676;2022-10-17T11:20:11;20.80;99.90
11126;DHT22;5617;54.046;10.676;2022-10-17T11:22:28;20.70;99.90
11126;DHT22;5617;54.046;10.676;2022-10-17T11:24:42;20.60;99.90
11126;DHT22;5617;54.046;10.676;2022-10-17T11:26:56;20.60;99.90
11126;DHT22;5617;54.046;10.676;2022-10-17T11:29:05;20.50;99.90
11126;DHT22;5617;54.046;10.676;2022-10-17T11:31:15;20.50;99.90
11126;DHT22;5617;54.046;10.676;2022-10-17T11:33:28;20.40;99.90
11126;DHT22;5617;54.046;10.676;2022-10-17T11:35:40;20.40;99.90
11126;DHT22;5617;54.046;10.676;2022-10-17T11:37:54;20.30;99.90
11126;DHT22;5617;54.046;10.676;2022-10-17T11:40:13;20.30;99.90
11126;DHT22;5617;54.046;10.676;2022-10-17T11:42:25;20.30;99.90
11126;DHT22;5617;54.046;10.676;2022-10-17T11:44:36;20.30;99.90
11126;DHT22;5617;54.046;10.676;2022-10-17T11:46:49;20.20;99.90
11126;DHT22;5617;54.046;10.676;2022-10-17T11:49:05;20.20;99.90
11126;DHT22;5617;54.046;10.676;2022-10-17T11:51:15;20.20;99.90
11126;DHT22;5617;54.046;10.676;2022-10-17T11:53:25;20.30;99.90
11126;DHT22;5617;54.046;10.676;2022-10-17T11:55:36;20.30;99.90
11126;DHT22;5617;54.046;10.676;2022-10-17T12:00:34;20.40;99.90
11126;DHT22;5617;54.046;10.676;2022-10-17T12:02:47;20.40;99.90
11126;DHT22;5617;54.046;10.676;2022-10-17T12:05:00;20.40;99.90
11126;DHT22;5617;54.046;10.676;2022-10-17T12:07:18;20.40;99.90
11126;DHT22;5617;54.046;10.676;2022-10-17T12:09:37;20.40;99.90
11126;DHT22;5617;54.046;10.676;2022-10-17T12:11:51;20.50;99.90
11126;DHT22;5617;54.046;10.676;2022-10-17T12:14:00;20.50;99.90
11126;DHT22;5617;54.046;10.676;2022-10-17T12:16:42;20.60;99.90
11126;DHT22;5617;54.046;10.676;2022-10-17T12:19:22;20.80;99.90
11126;DHT22;5617;54.046;10.676;2022-10-17T12:21:52;21.00;99.90
11126;DHT22;5617;54.046;10.676;2022-10-17T12:24:02;21.10;99.90
11126;DHT22;5617;54.046;10.676;2022-10-17T12:26:10;21.00;99.90
11126;DHT22;5617;54.046;10.676;2022-10-17T12:28:33;21.10;99.90
11126;DHT22;5617;54.046;10.676;2022-10-17T12:30:53;21.10;99.90
11126;DHT22;5617;54.046;10.676;2022-10-17T12:33:04;21.10;99.90
11126;DHT22;5617;54.046;10.676;2022-10-17T12:35:18;21.00;99.90
11126;DHT22;5617;54.046;10.676;2022-10-17T12:38:00;21.00;99.90
11126;DHT22;5617;54.046;10.676;2022-10-17T12:42:51;20.80;99.90
11126;DHT22;5617;54.046;10.676;2022-10-17T12:44:59;20.80;99.90
11126;DHT22;5617;54.046;10.676;2022-10-17T12:47:28;20.70;99.90
11126;DHT22;5617;54.046;10.676;2022-10-17T12:49:42;20.70;99.90
11126;DHT22;5617;54.046;10.676;2022-10-17T12:54:38;20.50;99.90
11126;DHT22;5617;54.046;10.676;2022-10-17T12:56:48;20.40;99.90
11126;DHT22;5617;54.046;10.676;2022-10-17T12:58:58;20.20;99.90
11126;DHT22;5617;54.046;10.676;2022-10-17T13:01:15;20.10;99.90
11126;DHT22;5617;54.046;10.676;2022-10-17T13:03:25;20.00;99.90
11126;DHT22;5617;54.046;10.676;2022-10-17T13:05:37;19.90;99.90
11126;DHT22;5617;54.046;10.676;2022-10-17T13:07:47;19.80;99.90
11126;DHT22;5617;54.046;10.676;2022-10-17T13:09:55;19.70;99.90
11126;DHT22;5617;54.046;10.676;2022-10-17T13:12:13;19.60;99.90
11126;DHT22;5617;54.046;10.676;2022-10-17T13:14:23;19.50;99.90
11126;DHT22;5617;54.046;10.676;2022-10-17T13:16:33;19.40;99.90
11126;DHT22;5617;54.046;10.676;2022-10-17T13:18:51;19.30;99.90
11126;DHT22;5617;54.046;10.676;2022-10-17T13:21:01;19.20;99.90
11126;DHT22;5617;54.046;10.676;2022-10-17T13:23:21;19.10;99.90
11126;DHT22;5617;54.046;10.676;2022-10-17T13:25:29;19.10;99.90
11126;DHT22;5617;54.046;10.676;2022-10-17T13:27:37;19.10;99.90
11126;DHT22;5617;54.046;10.676;2022-10-17T13:29:47;19.10;99.90
11126;DHT22;5617;54.046;10.676;2022-10-17T13:31:57;19.00;99.90
11126;DHT22;5617;54.046;10.676;2022-10-17T13:34:15;19.00;99.90
11126;DHT22;5617;54.046;10.676;2022-10-17T13:36:24;19.00;99.90
11126;DHT22;5617;54.046;10.676;2022-10-17T13:38:33;19.00;99.90
11126;DHT22;5617;54.046;10.676;2022-10-17T13:40:43;18.90;99.90
11126;DHT22;5617;54.046;10.676;2022-10-17T13:42:51;18.80;99.90
11126;DHT22;5617;54.046;10.676;2022-10-17T13:45:01;18.80;99.90
11126;DHT22;5617;54.046;10.676;2022-10-17T13:47:20;18.70;99.90
11126;DHT22;5617;54.046;10.676;2022-10-17T13:49:34;18.60;99.90
11126;DHT22;5617;54.046;10.676;2022-10-17T13:51:44;18.50;99.90
11126;DHT22;5617;54.046;10.676;2022-10-17T13:53:53;18.40;99.90
11126;DHT22;5617;54.046;10.676;2022-10-17T13:56:03;18.40;99.90
11126;DHT22;5617;54.046;10.676;2022-10-17T13:58:15;18.30;99.90